createdAt,value
2022-12-12T00:00:15.310Z,4.75
2022-12-12T00:01:18.332Z,5.89
2022-12-12T00:02:18.635Z,5.91
2022-12-12T00:03:15.775Z,6.27
2022-12-12T00:04:15.824Z,5.48
2022-12-12T00:05:19.839Z,6.11
2022-12-12T00:06:39.626Z,4.80
2022-12-12T00:07:39.020Z,5.95
2022-12-12T00:08:38.620Z,5.23
2022-12-12T00:09:35.493Z,4.45
2022-12-12T00:10:41.270Z,5.89
2022-12-12T00:11:38.266Z,5.56
2022-12-12T00:12:35.309Z,5.65
2022-12-12T00:13:32.736Z,5.09
2022-12-12T00:14:29.523Z,6.17
2022-12-12T00:15:27.810Z,3.85
2022-12-12T00:16:25.896Z,6.69
2022-12-12T00:17:22.880Z,5.37
2022-12-12T00:18:26.913Z,3.52
2022-12-12T00:19:23.674Z,5.76
2022-12-12T00:20:20.940Z,4.74
2022-12-12T00:21:22.529Z,5.58
2022-12-12T00:22:24.739Z,5.35
2022-12-12T00:23:24.831Z,2.24
2022-12-12T00:24:21.660Z,5.55
2022-12-12T00:25:18.502Z,4.94
2022-12-12T00:26:23.481Z,5.74
2022-12-12T00:27:20.249Z,6.16
2022-12-12T00:28:17.135Z,5.39
2022-12-12T00:29:14.071Z,5.68
2022-12-12T00:30:11.487Z,5.98
2022-12-12T00:31:08.429Z,6.01
2022-12-12T00:32:05.565Z,5.75
2022-12-12T00:33:02.356Z,5.77
2022-12-12T00:33:59.383Z,5.00
2022-12-12T00:34:56.238Z,3.07
2022-12-12T00:36:07.499Z,6.03
2022-12-12T00:37:04.440Z,4.13
2022-12-12T00:38:20.059Z,4.53
2022-12-12T00:39:28.825Z,4.82
2022-12-12T00:40:26.701Z,5.47
2022-12-12T00:41:23.617Z,4.57
2022-12-12T00:42:20.384Z,5.55
2022-12-12T00:43:17.253Z,5.61
2022-12-12T00:44:13.986Z,5.26
2022-12-12T00:45:11.532Z,4.67
2022-12-12T00:46:08.895Z,3.62
2022-12-12T00:47:05.752Z,5.51
2022-12-12T00:48:02.478Z,5.35
2022-12-12T00:48:59.626Z,5.67
2022-12-12T00:49:56.521Z,5.85
2022-12-12T00:50:53.982Z,5.92
2022-12-12T00:51:51.133Z,5.25
2022-12-12T00:52:48.300Z,5.60
2022-12-12T00:53:46.241Z,5.73
2022-12-12T00:54:42.979Z,5.80
2022-12-12T00:55:40.101Z,5.54
2022-12-12T00:56:40.122Z,4.86
2022-12-12T00:57:36.858Z,5.86
2022-12-12T00:58:34.691Z,5.85
2022-12-12T00:59:31.484Z,5.75
2022-12-12T01:00:28.702Z,1.54
2022-12-12T01:01:28.819Z,4.63
2022-12-12T01:02:28.332Z,5.42
2022-12-12T01:03:25.286Z,5.27
2022-12-12T01:04:22.096Z,5.59
2022-12-12T01:05:18.933Z,4.59
2022-12-12T01:06:16.081Z,5.53
2022-12-12T01:07:12.819Z,4.24
2022-12-12T01:08:09.681Z,5.61
2022-12-12T01:09:06.478Z,4.18
2022-12-12T01:10:04.721Z,6.33
2022-12-12T01:11:01.586Z,6.45
2022-12-12T01:11:58.404Z,6.68
2022-12-12T01:12:55.188Z,6.75
2022-12-12T01:13:53.459Z,6.62
2022-12-12T01:14:50.161Z,6.60
2022-12-12T01:15:47.108Z,6.23
2022-12-12T01:16:43.849Z,5.28
2022-12-12T01:17:41.483Z,6.52
2022-12-12T01:18:39.921Z,6.43
2022-12-12T01:19:36.872Z,5.19
2022-12-12T01:20:34.279Z,5.06
2022-12-12T01:21:31.162Z,5.35
2022-12-12T01:22:27.889Z,6.23
2022-12-12T01:23:24.954Z,5.31
2022-12-12T01:24:22.366Z,6.42
2022-12-12T01:25:19.543Z,6.70
2022-12-12T01:26:24.336Z,6.45
2022-12-12T01:27:22.097Z,6.83
2022-12-12T01:28:18.916Z,6.95
2022-12-12T01:29:16.086Z,6.15
2022-12-12T01:30:16.056Z,5.88
2022-12-12T01:31:14.096Z,5.92
2022-12-12T01:32:10.935Z,5.04
2022-12-12T01:33:07.806Z,6.30
2022-12-12T01:34:04.627Z,5.80
2022-12-12T01:35:01.405Z,6.85
2022-12-12T01:35:58.271Z,6.16
2022-12-12T01:36:54.998Z,6.47
2022-12-12T01:37:52.893Z,4.94
2022-12-12T01:38:53.191Z,6.80
2022-12-12T01:39:50.680Z,6.35
2022-12-12T01:40:47.537Z,6.38
2022-12-12T01:41:44.743Z,6.51
2022-12-12T01:42:42.252Z,6.42
2022-12-12T01:43:39.606Z,6.24
2022-12-12T01:44:40.154Z,5.19
2022-12-12T01:45:58.605Z,6.28
2022-12-12T01:46:55.535Z,6.50
2022-12-12T01:47:52.855Z,6.71
2022-12-12T01:48:57.330Z,6.77
2022-12-12T01:50:00.734Z,6.66
2022-12-12T01:51:02.498Z,5.65
2022-12-12T01:52:08.793Z,6.25
2022-12-12T01:53:05.600Z,5.80
2022-12-12T01:54:10.713Z,5.59
2022-12-12T01:55:15.024Z,5.11
2022-12-12T01:56:19.430Z,5.43
2022-12-12T01:57:30.182Z,5.36
2022-12-12T01:58:30.583Z,6.50
2022-12-12T01:59:29.345Z,5.97
2022-12-12T02:00:26.218Z,5.76
2022-12-12T02:01:23.796Z,5.95
2022-12-12T02:02:20.957Z,4.17
2022-12-12T02:03:17.771Z,5.25
2022-12-12T02:04:16.737Z,4.03
2022-12-12T02:05:25.727Z,5.58
2022-12-12T02:06:28.739Z,5.36
2022-12-12T02:07:25.735Z,5.65
2022-12-12T02:08:24.690Z,5.51
2022-12-12T02:09:25.431Z,4.45
2022-12-12T02:10:22.255Z,4.52
2022-12-12T02:11:19.083Z,4.22
2022-12-12T02:12:16.004Z,5.64
2022-12-12T02:13:18.659Z,4.71
2022-12-12T02:14:22.288Z,4.84
2022-12-12T02:15:19.181Z,5.43
2022-12-12T02:16:26.265Z,5.79
2022-12-12T02:17:50.754Z,5.97
2022-12-12T02:19:31.485Z,5.52
2022-12-12T02:21:00.217Z,5.16
2022-12-12T02:22:23.999Z,4.39
2022-12-12T02:23:49.647Z,4.72
2022-12-12T02:25:01.412Z,4.46
2022-12-12T02:26:22.642Z,5.45
2022-12-12T02:27:56.778Z,5.79
2022-12-12T02:29:12.254Z,5.07
2022-12-12T02:30:21.928Z,4.66
2022-12-12T02:31:24.783Z,4.49
2022-12-12T02:32:41.264Z,4.38
2022-12-12T02:33:43.964Z,4.63
2022-12-12T02:34:40.807Z,4.64
2022-12-12T02:35:53.485Z,4.82
2022-12-12T02:36:56.087Z,4.56
2022-12-12T02:38:20.418Z,4.28
2022-12-12T02:39:19.868Z,5.18
2022-12-12T02:40:32.297Z,5.30
2022-12-12T02:41:38.481Z,5.67
2022-12-12T02:42:59.492Z,5.08
2022-12-12T02:44:21.678Z,4.66
2022-12-12T02:45:41.254Z,3.75
2022-12-12T02:46:40.711Z,5.06
2022-12-12T02:47:47.499Z,4.50
2022-12-12T02:48:57.989Z,5.54
2022-12-12T02:50:12.516Z,5.17
2022-12-12T02:51:15.365Z,4.19
2022-12-12T02:52:12.480Z,4.47
2022-12-12T02:53:09.276Z,2.89
2022-12-12T02:54:15.004Z,4.45
2022-12-12T02:55:12.126Z,4.09
2022-12-12T02:56:44.045Z,4.29
2022-12-12T02:57:42.159Z,4.19
2022-12-12T02:58:39.091Z,3.99
2022-12-12T02:59:44.491Z,3.91
2022-12-12T03:01:15.045Z,3.54
2022-12-12T03:02:48.472Z,4.71
2022-12-12T03:04:14.075Z,3.88
2022-12-12T03:05:43.870Z,4.25
2022-12-12T03:07:11.419Z,5.45
2022-12-12T03:08:29.703Z,5.41
2022-12-12T03:09:29.134Z,5.12
2022-12-12T03:10:26.579Z,4.90
2022-12-12T03:11:51.924Z,4.83
2022-12-12T03:13:04.822Z,4.56
2022-12-12T03:14:25.956Z,4.46
2022-12-12T03:15:29.863Z,3.63
2022-12-12T03:16:38.717Z,5.28
2022-12-12T03:17:44.758Z,5.22
2022-12-12T03:18:59.859Z,4.37
2022-12-12T03:20:11.090Z,4.31
2022-12-12T03:21:30.811Z,4.29
2022-12-12T03:23:00.250Z,4.42
2022-12-12T03:24:04.235Z,4.33
2022-12-12T03:25:35.461Z,3.89
2022-12-12T03:26:47.086Z,4.83
2022-12-12T03:28:02.333Z,3.98
2022-12-12T03:29:13.845Z,4.32
2022-12-12T03:30:16.822Z,4.37
2022-12-12T03:31:19.993Z,4.14
2022-12-12T03:32:25.634Z,3.26
2022-12-12T03:33:31.677Z,2.42
2022-12-12T03:34:38.554Z,4.69
2022-12-12T03:35:44.455Z,4.96
2022-12-12T03:36:50.456Z,3.17
2022-12-12T03:38:00.897Z,4.80
2022-12-12T03:39:06.202Z,4.49
2022-12-12T03:40:26.562Z,4.04
2022-12-12T03:41:34.791Z,4.07
2022-12-12T03:42:45.580Z,4.73
2022-12-12T03:43:59.198Z,4.63
2022-12-12T03:45:24.932Z,3.85
2022-12-12T03:46:33.415Z,4.42
2022-12-12T03:47:43.456Z,3.60
2022-12-12T03:48:49.793Z,4.15
2022-12-12T03:50:04.567Z,4.78
2022-12-12T03:51:08.256Z,3.70
2022-12-12T03:52:25.231Z,4.84
2022-12-12T03:53:36.001Z,2.78
2022-12-12T03:54:54.125Z,3.11
2022-12-12T03:56:23.738Z,3.43
2022-12-12T03:57:38.672Z,4.00
2022-12-12T03:58:44.308Z,3.66
2022-12-12T03:59:53.415Z,3.18
2022-12-12T04:00:55.448Z,3.65
2022-12-12T04:02:07.427Z,3.73
2022-12-12T04:03:06.855Z,4.04
2022-12-12T04:04:17.928Z,3.22
2022-12-12T04:05:28.617Z,3.28
2022-12-12T04:06:41.996Z,2.87
2022-12-12T04:08:00.833Z,3.77
2022-12-12T04:09:20.567Z,3.15
2022-12-12T04:10:36.192Z,3.82
2022-12-12T04:12:00.887Z,3.65
2022-12-12T04:13:08.171Z,3.99
2022-12-12T04:14:34.558Z,4.31
2022-12-12T04:15:55.870Z,4.17
2022-12-12T04:17:00.897Z,4.04
2022-12-12T04:18:06.801Z,3.92
2022-12-12T04:19:10.935Z,3.69
2022-12-12T04:20:44.319Z,3.54
2022-12-12T04:22:16.791Z,3.41
2022-12-12T04:23:49.729Z,3.65
2022-12-12T04:24:59.125Z,3.59
2022-12-12T04:26:39.306Z,2.23
2022-12-12T04:27:48.612Z,3.80
2022-12-12T04:28:57.801Z,4.14
2022-12-12T04:30:07.600Z,4.07
2022-12-12T04:31:07.418Z,4.32
2022-12-12T04:32:32.774Z,4.19
2022-12-12T04:33:49.334Z,4.80
2022-12-12T04:34:50.199Z,4.95
2022-12-12T04:35:51.864Z,4.24
2022-12-12T04:36:50.910Z,3.59
2022-12-12T04:37:50.170Z,4.70
2022-12-12T04:38:49.966Z,4.44
2022-12-12T04:39:52.494Z,4.69
2022-12-12T04:40:58.709Z,5.29
2022-12-12T04:41:59.411Z,4.67
2022-12-12T04:43:33.330Z,3.77
2022-12-12T04:44:35.236Z,3.53
2022-12-12T04:45:38.318Z,3.96
2022-12-12T04:46:38.915Z,4.12
2022-12-12T04:47:39.478Z,3.40
2022-12-12T04:48:44.102Z,3.47
2022-12-12T04:49:45.138Z,4.16
2022-12-12T04:50:48.857Z,3.55
2022-12-12T04:51:51.494Z,3.95
2022-12-12T04:52:53.584Z,3.43
2022-12-12T04:54:02.711Z,3.49
2022-12-12T04:55:17.505Z,4.10
2022-12-12T04:56:23.460Z,4.41
2022-12-12T04:57:40.104Z,2.92
2022-12-12T04:58:38.609Z,3.11
2022-12-12T04:59:36.761Z,3.70
2022-12-12T05:00:51.759Z,4.03
2022-12-12T05:02:12.064Z,4.11
2022-12-12T05:03:26.865Z,4.08
2022-12-12T05:04:44.809Z,3.74
2022-12-12T05:05:54.906Z,3.98
2022-12-12T05:07:00.722Z,3.32
2022-12-12T05:08:07.618Z,3.80
2022-12-12T05:09:04.993Z,4.05
2022-12-12T05:10:02.545Z,3.23
2022-12-12T05:11:05.749Z,3.30
2022-12-12T05:12:02.635Z,3.40
2022-12-12T05:13:01.141Z,4.13
2022-12-12T05:13:57.814Z,4.11
2022-12-12T05:14:54.662Z,4.23
2022-12-12T05:15:55.455Z,4.32
2022-12-12T05:16:59.630Z,3.84
2022-12-12T05:18:05.495Z,3.29
2022-12-12T05:19:02.281Z,2.71
2022-12-12T05:19:59.030Z,4.02
2022-12-12T05:20:55.761Z,4.21
2022-12-12T05:21:52.645Z,4.16
2022-12-12T05:22:49.423Z,4.45
2022-12-12T05:23:46.261Z,3.12
2022-12-12T05:24:43.083Z,4.14
2022-12-12T05:25:40.074Z,4.29
2022-12-12T05:26:37.235Z,4.27
2022-12-12T05:27:34.160Z,3.25
2022-12-12T05:28:30.885Z,4.40
2022-12-12T05:29:27.669Z,4.30
2022-12-12T05:30:24.729Z,4.32
2022-12-12T05:31:22.076Z,3.75
2022-12-12T05:32:18.863Z,5.34
2022-12-12T05:33:15.691Z,4.18
2022-12-12T05:34:12.458Z,5.24
2022-12-12T05:35:10.431Z,5.17
2022-12-12T05:36:08.123Z,4.97
2022-12-12T05:37:09.225Z,5.82
2022-12-12T05:38:05.975Z,4.46
2022-12-12T05:39:02.669Z,4.87
2022-12-12T05:40:02.873Z,6.12
2022-12-12T05:40:59.713Z,5.72
2022-12-12T05:41:56.495Z,6.18
2022-12-12T05:42:56.422Z,6.00
2022-12-12T05:43:55.256Z,6.11
2022-12-12T05:44:52.261Z,5.50
2022-12-12T05:45:49.214Z,5.51
2022-12-12T05:46:45.980Z,5.80
2022-12-12T05:47:44.632Z,5.27
2022-12-12T05:48:41.866Z,4.50
2022-12-12T05:49:38.867Z,5.64
2022-12-12T05:50:36.718Z,5.27
2022-12-12T05:51:33.529Z,5.29
2022-12-12T05:52:32.664Z,4.27
2022-12-12T05:53:29.999Z,5.26
2022-12-12T05:54:29.982Z,4.31
2022-12-12T05:55:29.397Z,4.92
2022-12-12T05:56:28.571Z,3.80
2022-12-12T05:57:25.465Z,5.35
2022-12-12T05:58:25.472Z,5.24
2022-12-12T05:59:25.291Z,5.15
2022-12-12T06:00:22.026Z,3.37
2022-12-12T06:01:21.232Z,4.60
2022-12-12T06:02:21.044Z,4.39
2022-12-12T06:03:21.761Z,3.64
2022-12-12T06:04:21.579Z,4.04
2022-12-12T06:05:21.036Z,5.57
2022-12-12T06:06:17.867Z,4.88
2022-12-12T06:07:17.641Z,5.55
2022-12-12T06:08:20.984Z,4.60
2022-12-12T06:09:21.654Z,5.14
2022-12-12T06:10:18.689Z,4.20
2022-12-12T06:11:18.494Z,4.74
2022-12-12T06:12:18.134Z,4.83
2022-12-12T06:13:14.872Z,5.00
2022-12-12T06:14:11.689Z,5.08
2022-12-12T06:15:09.212Z,4.65
2022-12-12T06:16:12.971Z,5.11
2022-12-12T06:17:09.719Z,3.51
2022-12-12T06:18:07.193Z,4.99
2022-12-12T06:19:04.628Z,4.56
2022-12-12T06:20:02.275Z,5.08
2022-12-12T06:21:08.247Z,5.33
2022-12-12T06:22:05.043Z,5.14
2022-12-12T06:23:01.988Z,5.14
2022-12-12T06:23:59.081Z,5.19
2022-12-12T06:24:56.016Z,4.97
2022-12-12T06:25:52.786Z,5.10
2022-12-12T06:26:49.707Z,4.88
2022-12-12T06:27:46.415Z,4.47
2022-12-12T06:28:44.466Z,4.24
2022-12-12T06:29:41.332Z,3.86
2022-12-12T06:30:38.145Z,3.09
2022-12-12T06:31:35.267Z,3.98
2022-12-12T06:32:32.053Z,3.98
2022-12-12T06:33:29.037Z,4.08
2022-12-12T06:34:25.949Z,3.75
2022-12-12T06:35:22.819Z,4.09
2022-12-12T06:36:26.232Z,3.71
2022-12-12T06:37:23.635Z,4.18
2022-12-12T06:38:20.520Z,3.97
2022-12-12T06:39:18.211Z,3.87
2022-12-12T06:40:18.388Z,4.07
2022-12-12T06:41:15.759Z,4.03
2022-12-12T06:42:13.398Z,3.67
2022-12-12T06:43:10.110Z,4.28
2022-12-12T06:44:07.002Z,4.38
2022-12-12T06:45:04.291Z,4.00
2022-12-12T06:46:06.889Z,2.19
2022-12-12T06:47:06.543Z,4.11
2022-12-12T06:48:03.368Z,3.75
2022-12-12T06:49:00.150Z,4.36
2022-12-12T06:49:57.005Z,4.26
2022-12-12T06:50:59.351Z,2.34
2022-12-12T06:51:58.756Z,3.14
2022-12-12T06:52:55.588Z,4.23
2022-12-12T06:53:53.035Z,4.20
2022-12-12T06:55:08.786Z,3.64
2022-12-12T06:56:28.497Z,4.29
2022-12-12T06:57:43.743Z,4.25
2022-12-12T06:58:59.975Z,4.23
2022-12-12T07:00:18.454Z,4.28
2022-12-12T07:01:54.901Z,3.82
2022-12-12T07:03:18.055Z,3.84
2022-12-12T07:04:33.671Z,4.06
2022-12-12T07:05:49.226Z,4.47
2022-12-12T07:07:04.565Z,4.86
2022-12-12T07:08:20.047Z,4.48
2022-12-12T07:09:38.400Z,4.43
2022-12-12T07:10:57.164Z,3.14
2022-12-12T07:12:13.233Z,4.76
2022-12-12T07:13:30.103Z,4.77
2022-12-12T07:14:45.708Z,1.29
2022-12-12T07:16:04.705Z,4.58
2022-12-12T07:17:25.260Z,4.57
2022-12-12T07:18:59.215Z,3.50
2022-12-12T07:20:14.881Z,3.50
2022-12-12T07:21:30.521Z,4.68
2022-12-12T07:22:48.334Z,3.68
2022-12-12T07:24:06.148Z,5.25
2022-12-12T07:25:21.609Z,5.31
2022-12-12T07:26:39.547Z,5.26
2022-12-12T07:27:55.110Z,3.15
2022-12-12T07:29:11.182Z,4.78
2022-12-12T07:30:26.465Z,3.76
2022-12-12T07:31:43.907Z,4.40
2022-12-12T07:33:04.009Z,3.74
2022-12-12T07:34:23.699Z,3.51
2022-12-12T07:35:42.101Z,4.20
2022-12-12T07:37:03.163Z,4.93
2022-12-12T07:38:22.003Z,5.02
2022-12-12T07:39:41.283Z,4.81
2022-12-12T07:40:56.792Z,4.90
2022-12-12T07:42:12.200Z,4.83
2022-12-12T07:43:27.532Z,4.64
2022-12-12T07:44:42.605Z,4.80
2022-12-12T07:45:58.121Z,4.79
2022-12-12T07:47:13.468Z,4.73
2022-12-12T07:48:29.181Z,4.64
2022-12-12T07:49:44.600Z,3.43
2022-12-12T07:51:01.753Z,3.68
2022-12-12T07:51:58.545Z,4.53
2022-12-12T07:52:55.432Z,4.42
2022-12-12T07:53:52.255Z,5.25
2022-12-12T07:54:49.209Z,5.26
2022-12-12T07:55:46.034Z,4.52
2022-12-12T07:56:43.219Z,5.22
2022-12-12T07:57:41.391Z,4.81
2022-12-12T07:58:38.973Z,4.54
2022-12-12T07:59:35.844Z,4.58
2022-12-12T08:00:32.687Z,4.31
2022-12-12T08:01:30.659Z,4.08
2022-12-12T08:02:27.539Z,4.17
2022-12-12T08:03:24.353Z,4.62
2022-12-12T08:04:21.170Z,4.50
2022-12-12T08:05:18.223Z,3.42
2022-12-12T08:06:33.929Z,4.45
2022-12-12T08:07:49.583Z,5.25
2022-12-12T08:08:48.360Z,4.74
2022-12-12T08:09:45.140Z,4.91
2022-12-12T08:10:42.207Z,4.34
2022-12-12T08:11:45.899Z,4.03
2022-12-12T08:12:46.372Z,4.63
2022-12-12T08:13:44.504Z,3.97
2022-12-12T08:14:41.406Z,5.03
2022-12-12T08:15:38.358Z,4.70
2022-12-12T08:16:35.273Z,4.95
2022-12-12T08:17:32.211Z,4.83
2022-12-12T08:18:29.265Z,5.17
2022-12-12T08:19:26.142Z,4.77
2022-12-12T08:20:23.088Z,4.12
2022-12-12T08:21:25.157Z,4.68
2022-12-12T08:22:23.095Z,4.85
2022-12-12T08:23:19.932Z,5.13
2022-12-12T08:24:17.266Z,4.78
2022-12-12T08:25:14.409Z,5.22
2022-12-12T08:26:15.338Z,5.42
2022-12-12T08:27:15.500Z,4.26
2022-12-12T08:28:12.745Z,5.10
2022-12-12T08:29:10.291Z,4.09
2022-12-12T08:30:08.549Z,5.38
2022-12-12T08:31:05.623Z,5.24
2022-12-12T08:32:04.700Z,5.25
2022-12-12T08:33:07.848Z,6.43
2022-12-12T08:34:05.566Z,6.91
2022-12-12T08:35:02.547Z,5.91
2022-12-12T08:35:59.388Z,6.04
2022-12-12T08:36:56.308Z,5.08
2022-12-12T08:37:53.119Z,5.73
2022-12-12T08:38:50.743Z,5.15
2022-12-12T08:39:51.485Z,3.64
2022-12-12T08:40:51.008Z,5.55
2022-12-12T08:41:50.180Z,5.36
2022-12-12T08:42:47.039Z,5.34
2022-12-12T08:43:45.152Z,5.77
2022-12-12T08:44:41.998Z,5.20
2022-12-12T08:45:39.476Z,6.85
2022-12-12T08:46:36.695Z,6.07
2022-12-12T08:47:33.595Z,5.63
2022-12-12T08:48:30.957Z,4.99
2022-12-12T08:49:27.721Z,5.80
2022-12-12T08:50:25.370Z,5.69
2022-12-12T08:51:22.990Z,5.67
2022-12-12T08:52:19.981Z,3.94
2022-12-12T08:53:17.210Z,5.85
2022-12-12T08:54:14.323Z,5.96
2022-12-12T08:55:11.450Z,6.03
2022-12-12T08:56:08.572Z,6.21
2022-12-12T08:57:06.124Z,6.02
2022-12-12T08:58:02.966Z,6.11
2022-12-12T08:59:04.187Z,6.30
2022-12-12T09:00:02.152Z,6.45
2022-12-12T09:00:59.904Z,7.30
2022-12-12T09:01:57.147Z,6.45
2022-12-12T09:03:01.115Z,7.81
2022-12-12T09:03:59.085Z,7.40
2022-12-12T09:04:55.807Z,7.71
2022-12-12T09:05:52.630Z,7.88
2022-12-12T09:06:49.487Z,7.74
2022-12-12T09:07:46.253Z,7.24
2022-12-12T09:08:43.253Z,8.00
2022-12-12T09:09:40.108Z,4.60
2022-12-12T09:10:38.375Z,7.28
2022-12-12T09:11:44.313Z,7.75
2022-12-12T09:12:42.749Z,7.66
2022-12-12T09:13:40.417Z,7.08
2022-12-12T09:14:37.241Z,7.43
2022-12-12T09:15:37.755Z,7.12
2022-12-12T09:16:34.641Z,7.90
2022-12-12T09:17:31.990Z,7.23
2022-12-12T09:18:30.334Z,6.88
2022-12-12T09:19:27.059Z,6.50
2022-12-12T09:20:23.928Z,6.23
2022-12-12T09:21:20.685Z,5.57
2022-12-12T09:22:17.979Z,6.96
2022-12-12T09:23:14.726Z,6.14
2022-12-12T09:24:11.433Z,6.74
2022-12-12T09:25:08.531Z,6.31
2022-12-12T09:26:07.669Z,6.08
2022-12-12T09:27:04.567Z,6.49
2022-12-12T09:28:01.556Z,6.70
2022-12-12T09:28:58.319Z,7.61
2022-12-12T09:29:55.119Z,7.71
2022-12-12T09:30:52.625Z,6.70
2022-12-12T09:31:49.512Z,5.44
2022-12-12T09:32:46.368Z,6.98
2022-12-12T09:33:43.371Z,6.88
2022-12-12T09:34:40.174Z,6.47
2022-12-12T09:35:37.458Z,6.79
2022-12-12T09:36:34.371Z,6.93
2022-12-12T09:37:31.123Z,6.57
2022-12-12T09:38:28.311Z,6.79
2022-12-12T09:39:25.086Z,7.28
2022-12-12T09:40:34.002Z,7.24
2022-12-12T09:41:31.821Z,7.62
2022-12-12T09:42:32.492Z,6.83
2022-12-12T09:43:47.481Z,7.27
2022-12-12T09:44:44.492Z,6.19
2022-12-12T09:45:42.897Z,5.71
2022-12-12T09:46:48.442Z,7.02
2022-12-12T09:47:49.188Z,6.66
2022-12-12T09:48:47.289Z,7.11
2022-12-12T09:49:55.717Z,5.70
2022-12-12T09:50:52.704Z,7.39
2022-12-12T09:51:52.229Z,6.77
2022-12-12T09:52:50.116Z,6.35
2022-12-12T09:53:47.466Z,6.96
2022-12-12T09:54:45.315Z,6.89
2022-12-12T09:56:04.898Z,6.51
2022-12-12T09:57:30.917Z,5.87
2022-12-12T09:58:50.120Z,6.91
2022-12-12T10:00:06.422Z,6.85
2022-12-12T10:01:34.395Z,7.03
2022-12-12T10:02:37.277Z,6.59
2022-12-12T10:04:01.508Z,6.89
2022-12-12T10:05:19.955Z,6.89
2022-12-12T10:06:37.623Z,5.97
2022-12-12T10:07:51.119Z,6.37
2022-12-12T10:09:09.362Z,6.89
2022-12-12T10:10:27.598Z,6.77
2022-12-12T10:11:50.756Z,6.69
2022-12-12T10:12:48.865Z,6.80
2022-12-12T10:13:45.726Z,7.14
2022-12-12T10:15:02.493Z,6.98
2022-12-12T10:16:10.431Z,7.32
2022-12-12T10:17:32.895Z,6.88
2022-12-12T10:18:40.079Z,6.49
2022-12-12T10:19:49.872Z,6.95
2022-12-12T10:20:55.561Z,7.11
2022-12-12T10:21:58.243Z,6.35
2022-12-12T10:23:25.095Z,7.61
2022-12-12T10:24:55.950Z,8.20
2022-12-12T10:25:56.429Z,8.60
2022-12-12T10:26:54.508Z,7.97
2022-12-12T10:28:00.418Z,7.77
2022-12-12T10:29:13.611Z,8.88
2022-12-12T10:30:19.191Z,7.60
2022-12-12T10:31:34.470Z,7.96
2022-12-12T10:33:09.492Z,8.33
2022-12-12T10:34:37.296Z,8.74
2022-12-12T10:35:53.046Z,7.75
2022-12-12T10:36:52.758Z,8.88
2022-12-12T10:38:14.529Z,8.92
2022-12-12T10:39:32.080Z,8.90
2022-12-12T10:40:51.399Z,8.68
2022-12-12T10:41:48.167Z,8.63
2022-12-12T10:42:58.214Z,8.16
2022-12-12T10:43:58.359Z,8.41
2022-12-12T10:45:38.477Z,8.51
2022-12-12T10:46:57.050Z,5.91
2022-12-12T10:47:54.708Z,8.33
2022-12-12T10:48:51.905Z,8.42
2022-12-12T10:49:51.891Z,8.38
2022-12-12T10:50:57.817Z,8.27
2022-12-12T10:51:58.722Z,7.52
2022-12-12T10:52:55.650Z,7.62
2022-12-12T10:53:52.829Z,8.26
2022-12-12T10:55:00.538Z,8.30
2022-12-12T10:56:22.856Z,8.08
2022-12-12T10:57:33.694Z,8.27
2022-12-12T10:58:42.939Z,8.46
2022-12-12T10:59:46.746Z,9.03
2022-12-12T11:00:45.952Z,8.74
2022-12-12T11:02:09.245Z,9.24
2022-12-12T11:03:12.395Z,8.56
2022-12-12T11:04:09.394Z,8.90
2022-12-12T11:05:06.187Z,8.86
2022-12-12T11:06:19.351Z,8.56
2022-12-12T11:07:23.471Z,8.38
2022-12-12T11:08:36.288Z,8.38
2022-12-12T11:09:33.146Z,7.79
2022-12-12T11:10:36.486Z,7.91
2022-12-12T11:11:33.436Z,7.75
2022-12-12T11:12:45.403Z,8.30
2022-12-12T11:13:51.591Z,8.22
2022-12-12T11:14:52.178Z,8.80
2022-12-12T11:16:14.020Z,8.42
2022-12-12T11:17:31.469Z,4.63
2022-12-12T11:18:30.043Z,7.55
2022-12-12T11:19:36.357Z,8.39
2022-12-12T11:20:33.235Z,8.20
2022-12-12T11:21:36.498Z,7.70
2022-12-12T11:22:34.236Z,8.53
2022-12-12T11:23:34.041Z,8.56
2022-12-12T11:24:34.096Z,8.62
2022-12-12T11:25:39.164Z,7.37
2022-12-12T11:27:05.119Z,8.52
2022-12-12T11:28:06.953Z,8.45
2022-12-12T11:29:06.659Z,8.83
2022-12-12T11:30:43.419Z,9.05
2022-12-12T11:31:44.400Z,8.70
2022-12-12T11:32:46.707Z,8.50
2022-12-12T11:33:52.785Z,8.13
2022-12-12T11:34:58.803Z,8.17
2022-12-12T11:35:56.817Z,8.17
2022-12-12T11:37:19.663Z,8.56
2022-12-12T11:38:28.285Z,6.33
2022-12-12T11:39:36.524Z,8.37
2022-12-12T11:40:36.525Z,7.64
2022-12-12T11:42:04.210Z,8.47
2022-12-12T11:43:26.189Z,7.71
2022-12-12T11:44:27.265Z,7.17
2022-12-12T11:45:24.156Z,8.10
2022-12-12T11:46:26.548Z,6.66
2022-12-12T11:47:27.059Z,7.60
2022-12-12T11:48:36.643Z,7.90
2022-12-12T11:49:36.146Z,7.67
2022-12-12T11:50:32.997Z,6.85
2022-12-12T11:51:40.255Z,7.86
2022-12-12T11:52:37.955Z,7.31
2022-12-12T11:53:45.622Z,8.28
2022-12-12T11:54:42.431Z,8.76
2022-12-12T11:56:02.339Z,8.68
2022-12-12T11:57:31.639Z,8.37
2022-12-12T11:58:38.706Z,8.71
2022-12-12T12:00:00.235Z,7.44
2022-12-12T12:01:05.996Z,8.32
2022-12-12T12:02:05.623Z,8.12
2022-12-12T12:03:40.589Z,8.09
2022-12-12T12:05:03.475Z,5.18
2022-12-12T12:06:14.056Z,8.23
2022-12-12T12:07:39.452Z,7.55
2022-12-12T12:08:58.060Z,7.78
2022-12-12T12:10:06.947Z,5.82
2022-12-12T12:11:09.358Z,8.09
2022-12-12T12:12:14.944Z,8.13
2022-12-12T12:13:23.599Z,8.35
2022-12-12T12:14:38.726Z,8.60
2022-12-12T12:16:04.111Z,8.75
2022-12-12T12:17:24.761Z,6.81
2022-12-12T12:18:35.706Z,8.48
2022-12-12T12:19:55.529Z,8.93
2022-12-12T12:21:05.241Z,7.91
2022-12-12T12:22:31.539Z,8.63
2022-12-12T12:23:50.372Z,8.85
2022-12-12T12:24:59.550Z,9.09
2022-12-12T12:26:04.632Z,8.70
2022-12-12T12:27:13.676Z,9.64
2022-12-12T12:28:47.108Z,9.62
2022-12-12T12:30:02.671Z,8.87
2022-12-12T12:31:30.915Z,7.59
2022-12-12T12:32:45.934Z,8.77
2022-12-12T12:34:14.529Z,8.72
2022-12-12T12:35:26.280Z,8.12
2022-12-12T12:36:52.571Z,8.18
2022-12-12T12:38:07.477Z,8.20
2022-12-12T12:39:12.307Z,8.34
2022-12-12T12:40:27.793Z,8.45
2022-12-12T12:41:53.680Z,8.31
2022-12-12T12:43:08.057Z,8.10
2022-12-12T12:44:37.420Z,7.60
2022-12-12T12:45:57.834Z,8.53
2022-12-12T12:47:24.495Z,8.59
2022-12-12T12:48:30.915Z,8.44
2022-12-12T12:49:34.007Z,8.24
2022-12-12T12:50:50.168Z,8.42
2022-12-12T12:52:09.739Z,7.82
2022-12-12T12:53:33.771Z,7.95
2022-12-12T12:54:43.106Z,8.50
2022-12-12T12:55:47.782Z,8.53
2022-12-12T12:57:08.028Z,7.27
2022-12-12T12:58:15.642Z,8.82
2022-12-12T12:59:20.934Z,5.57
2022-12-12T13:00:21.808Z,9.20
2022-12-12T13:01:29.481Z,8.16
2022-12-12T13:02:50.339Z,8.20
2022-12-12T13:04:05.877Z,7.83
2022-12-12T13:05:26.956Z,8.92
2022-12-12T13:06:37.256Z,9.00
2022-12-12T13:07:45.738Z,8.57
2022-12-12T13:09:06.977Z,8.43
2022-12-12T13:10:22.703Z,8.26
2022-12-12T13:11:31.995Z,8.65
2022-12-12T13:12:40.121Z,5.17
2022-12-12T13:13:42.126Z,8.70
2022-12-12T13:14:50.632Z,8.71
2022-12-12T13:15:54.642Z,8.70
2022-12-12T13:16:53.935Z,8.36
2022-12-12T13:18:01.606Z,7.19
2022-12-12T13:19:38.338Z,8.34
2022-12-12T13:20:41.238Z,8.32
2022-12-12T13:21:50.586Z,7.59
2022-12-12T13:22:59.736Z,8.04
2022-12-12T13:24:25.893Z,7.96
2022-12-12T13:25:44.166Z,7.97
2022-12-12T13:27:06.790Z,8.53
2022-12-12T13:28:12.508Z,8.30
2022-12-12T13:29:30.451Z,8.51
2022-12-12T13:30:36.308Z,8.60
2022-12-12T13:31:43.058Z,8.26
2022-12-12T13:33:10.275Z,7.39
2022-12-12T13:34:16.169Z,8.12
2022-12-12T13:35:22.430Z,7.81
2022-12-12T13:36:29.970Z,8.47
2022-12-12T13:37:32.357Z,7.54
2022-12-12T13:38:36.736Z,8.63
2022-12-12T13:39:38.843Z,7.46
2022-12-12T13:40:41.712Z,8.13
2022-12-12T13:41:57.688Z,7.37
2022-12-12T13:43:09.681Z,8.53
2022-12-12T13:44:35.958Z,8.81
2022-12-12T13:45:40.048Z,7.21
2022-12-12T13:46:42.873Z,8.80
2022-12-12T13:47:50.142Z,8.85
2022-12-12T13:49:05.746Z,8.86
2022-12-12T13:50:08.067Z,7.48
2022-12-12T13:51:32.358Z,8.48
2022-12-12T13:52:36.944Z,8.62
2022-12-12T13:53:33.690Z,8.03
2022-12-12T13:54:30.348Z,8.06
2022-12-12T13:55:31.055Z,8.11
2022-12-12T13:56:35.089Z,8.38
2022-12-12T13:57:34.139Z,8.41
2022-12-12T13:58:36.942Z,8.40
2022-12-12T13:59:56.502Z,8.08
2022-12-12T14:01:41.360Z,8.33
2022-12-12T14:02:44.256Z,8.50
2022-12-12T14:03:47.050Z,8.22
2022-12-12T14:04:44.736Z,8.32
2022-12-12T14:05:49.907Z,8.06
2022-12-12T14:07:20.968Z,7.99
2022-12-12T14:08:23.532Z,7.92
2022-12-12T14:09:22.307Z,8.00
2022-12-12T14:10:29.970Z,7.84
2022-12-12T14:11:33.113Z,7.70
2022-12-12T14:12:39.072Z,7.95
2022-12-12T14:13:50.977Z,7.83
2022-12-12T14:15:32.467Z,8.10
2022-12-12T14:16:29.842Z,7.56
2022-12-12T14:17:36.893Z,8.47
2022-12-12T14:19:02.035Z,8.66
2022-12-12T14:20:04.847Z,8.17
2022-12-12T14:21:17.805Z,8.45
2022-12-12T14:22:39.345Z,7.53
2022-12-12T14:23:48.337Z,8.78
2022-12-12T14:25:20.856Z,8.87
2022-12-12T14:26:36.763Z,8.61
2022-12-12T14:27:51.521Z,8.91
2022-12-12T14:29:16.645Z,8.27
2022-12-12T14:30:33.680Z,7.85
2022-12-12T14:31:41.605Z,7.44
2022-12-12T14:33:13.018Z,4.26
2022-12-12T14:34:27.877Z,7.83
2022-12-12T14:36:09.564Z,7.91
2022-12-12T14:37:09.071Z,7.98